Hibiki — JD3805 — position and weather

sailwx.info

Track history (hours):
 
Tides and Currents Weather Stations Pressure Air Temp Water Temp Dewpoint Dewpoint Depression Visibility Wind Speed Wind Dir Waves Ship Positions

Hibiki

Last reported at 2017-Sep-21 22:28 UTC. Time now 2017-Sep-22 09:55 UTC.
Position N 34°31' E 135°24'.

Length 195 m; draft 6.5 m.

Type: Passenger vessel. MMSI: 431006223.

Date/timePositionNaut miles runAvg speedWind from/ knotsBaromVisibWave heightAir tempDewpointWater temp
2017-Sep-21 22:28N 34°31' E 135°24'0 0.0
2017-Sep-21 21:52N 34°31' E 135°24'0 0.0
2017-Sep-21 21:22N 34°31' E 135°24'0 0.0
2017-Sep-21 20:58N 34°31' E 135°24'3 5.4
2017-Sep-21 20:30N 34°33' E 135°22'917.6
2017-Sep-21 20:00N 34°34' E 135°11'1019.8
2017-Sep-21 19:30N 34°37' E 134°60'1220.1
2017-Sep-21 18:55N 34°32' E 134°46'1 0.0
2017-Sep-20 10:07N 34°33' E 134°46'222.5
2017-Sep-20 10:00N 34°34' E 134°49'1122.4
2017-Sep-20 09:30N 34°37' E 135°02'1020.2
2017-Sep-20 09:00N 34°34' E 135°14'816.6
2017-Sep-20 08:30N 34°31' E 135°24'0 0.2
2017-Sep-20 07:43N 34°31' E 135°24'0 0.0
2017-Sep-20 07:30N 34°31' E 135°24'0 0.0
2017-Sep-20 07:00N 34°31' E 135°24'0 0.0
2017-Sep-20 06:30N 34°31' E 135°24'0 0.0
2017-Sep-20 05:54N 34°31' E 135°24'0 0.0
2017-Sep-20 05:24N 34°31' E 135°24'0 0.0
2017-Sep-20 05:00N 34°31' E 135°24'0 0.0
2017-Sep-20 02:36N 34°31' E 135°24'0 0.0
2017-Sep-20 02:24N 34°31' E 135°24'0 0.0
2017-Sep-20 02:00N 34°31' E 135°24'0 0.0
2017-Sep-20 01:30N 34°31' E 135°24'0 0.0
2017-Sep-19 23:30N 34°31' E 135°24'0 0.0
2017-Sep-19 22:54N 34°31' E 135°24'0 0.0
2017-Sep-19 22:30N 34°31' E 135°24'0 0.0
2017-Sep-19 22:00N 34°31' E 135°24'0 0.0
2017-Sep-19 21:24N 34°31' E 135°24'0 0.0
2017-Sep-19 21:01N 34°31' E 135°24'3 5.3
2017-Sep-19 20:30N 34°33' E 135°21'917.8
2017-Sep-19 20:00N 34°34' E 135°11'918.5
2017-Sep-19 19:30N 34°37' E 135°00'918.4
2017-Sep-19 19:00N 34°33' E 134°50'8 0.2
2017-Sep-18 10:33N 34°31' E 134°41'223.3
2017-Sep-18 10:28N 34°32' E 134°43'1224.8
2017-Sep-18 10:00N 34°36' E 134°56'1122.4
2017-Sep-18 09:30N 34°36' E 135°10'1020.4
2017-Sep-18 09:00N 34°36' E 135°22'5 6.6
2017-Sep-18 08:14N 34°31' E 135°24'0 0.0
2017-Sep-18 07:56N 34°31' E 135°24'0 0.0
2017-Sep-18 07:26N 34°31' E 135°24'0 0.0
2017-Sep-18 06:56N 34°31' E 135°24'0 0.0
2017-Sep-18 06:20N 34°31' E 135°24'0 0.0
2017-Sep-18 01:20N 34°31' E 135°24'0 0.0
2017-Sep-18 00:56N 34°31' E 135°24'0 0.0
2017-Sep-18 00:26N 34°31' E 135°24'0 0.0
2017-Sep-17 23:56N 34°31' E 135°24'0 0.0
2017-Sep-17 23:30N 34°31' E 135°24'3 6.5
2017-Sep-17 23:00N 34°33' E 135°21'1020.2
2017-Sep-17 22:30N 34°34' E 135°08'918.0
2017-Sep-17 22:00N 34°37' E 134°58'11 0.3
2017-Sep-16 04:55N 34°33' E 134°46'819.7
2017-Sep-16 04:30N 34°36' E 134°55'817.0
2017-Sep-16 04:00N 34°36' E 135°05'918.5
2017-Sep-16 03:30N 34°34' E 135°16'714.6
2017-Sep-16 03:00N 34°31' E 135°24'0 0.0
2017-Sep-16 02:25N 34°31' E 135°24'0 0.0
2017-Sep-16 01:55N 34°31' E 135°24'0 0.0
2017-Sep-16 01:25N 34°31' E 135°24'0 0.0
2017-Sep-16 00:55N 34°31' E 135°24'0 0.0
2017-Sep-16 00:25N 34°31' E 135°24'0 0.0
2017-Sep-15 23:55N 34°31' E 135°24'0 0.0
2017-Sep-15 22:49N 34°31' E 135°24'0 0.0
2017-Sep-15 22:19N 34°31' E 135°24'0 0.0
2017-Sep-15 21:55N 34°31' E 135°24'0 0.0
2017-Sep-15 21:25N 34°31' E 135°24'0 0.0
2017-Sep-15 20:53N 34°31' E 135°24'3 6.9
2017-Sep-15 20:30N 34°33' E 135°22'1019.3
2017-Sep-15 20:00N 34°34' E 135°10'1019.6
2017-Sep-15 19:30N 34°37' E 134°58'13 0.4
2017-Sep-14 10:19N 34°32' E 134°44'722.3
2017-Sep-14 09:59N 34°35' E 134°52'1019.9
2017-Sep-14 09:30N 34°36' E 135°04'1121.5
2017-Sep-14 09:00N 34°33' E 135°17'612.5
2017-Sep-14 08:30N 34°31' E 135°24'0 0.0
2017-Sep-14 08:01N 34°31' E 135°24'0 0.0
2017-Sep-14 07:31N 34°31' E 135°24'0 0.0
2017-Sep-14 06:58N 34°31' E 135°24'0 0.0
2017-Sep-14 06:30N 34°31' E 135°24'0 0.0
2017-Sep-14 05:40N 34°31' E 135°24'0 0.0
2017-Sep-14 05:30N 34°31' E 135°24'0 0.0
2017-Sep-14 05:01N 34°31' E 135°24'0 0.0
2017-Sep-14 04:30N 34°31' E 135°24'0 0.0
2017-Sep-14 04:00N 34°31' E 135°24'0 0.0
2017-Sep-14 03:31N 34°31' E 135°24'0 0.0
2017-Sep-14 03:00N 34°31' E 135°24'0 0.0
2017-Sep-14 02:30N 34°31' E 135°24'0 0.0
2017-Sep-14 02:00N 34°31' E 135°24'0 0.0
2017-Sep-14 01:29N 34°31' E 135°24'0 0.0
2017-Sep-14 01:00N 34°31' E 135°24'0 0.0
2017-Sep-14 00:29N 34°31' E 135°24'0 0.0
2017-Sep-13 23:54N 34°31' E 135°24'0 0.0
2017-Sep-13 23:30N 34°31' E 135°24'0 0.0
2017-Sep-13 23:00N 34°31' E 135°24'0 0.0
2017-Sep-13 22:29N 34°31' E 135°24'0 0.0
2017-Sep-13 21:59N 34°31' E 135°24'0 0.0
2017-Sep-13 21:30N 34°31' E 135°24'0 0.0
2017-Sep-13 21:01N 34°31' E 135°24'2 4.9
2017-Sep-13 20:30N 34°33' E 135°22'1019.2
2017-Sep-13 20:01N 34°34' E 135°10'1020.7
2017-Sep-13 19:30N 34°37' E 134°58'8 0.2
2017-Sep-12 10:11N 34°34' E 134°49'420.9
2017-Sep-12 10:00N 34°36' E 134°53'918.4
2017-Sep-12 09:30N 34°36' E 135°04'1020.5
2017-Sep-12 09:00N 34°36' E 135°17'815.6
2017-Sep-12 08:30N 34°31' E 135°24'0 0.1
2017-Sep-12 07:58N 34°31' E 135°24'  
Track history (hours):
 
Tides and Currents Weather Stations Pressure Air Temp Water Temp Dewpoint Dewpoint Depression Visibility Wind Speed Wind Dir Waves Ship Positions

Hibiki

Last reported at 2017-Sep-21 22:28 UTC. Time now 2017-Sep-22 09:55 UTC.
Position N 34°31' E 135°24'.

Length 195 m; draft 6.5 m.

Type: Passenger vessel. MMSI: 431006223.

Date/timePositionNaut miles runAvg speedWind from/ knotsBaromVisibWave heightAir tempDewpointWater temp
2017-Sep-21 22:28N 34°31' E 135°24'0 0.0
2017-Sep-21 21:52N 34°31' E 135°24'0 0.0
2017-Sep-21 21:22N 34°31' E 135°24'0 0.0
2017-Sep-21 20:58N 34°31' E 135°24'3 5.4
2017-Sep-21 20:30N 34°33' E 135°22'917.6
2017-Sep-21 20:00N 34°34' E 135°11'1019.8
2017-Sep-21 19:30N 34°37' E 134°60'1220.1
2017-Sep-21 18:55N 34°32' E 134°46'1 0.0
2017-Sep-20 10:07N 34°33' E 134°46'222.5
2017-Sep-20 10:00N 34°34' E 134°49'1122.4
2017-Sep-20 09:30N 34°37' E 135°02'1020.2
2017-Sep-20 09:00N 34°34' E 135°14'816.6
2017-Sep-20 08:30N 34°31' E 135°24'0 0.2
2017-Sep-20 07:43N 34°31' E 135°24'0 0.0
2017-Sep-20 07:30N 34°31' E 135°24'0 0.0
2017-Sep-20 07:00N 34°31' E 135°24'0 0.0
2017-Sep-20 06:30N 34°31' E 135°24'0 0.0
2017-Sep-20 05:54N 34°31' E 135°24'0 0.0
2017-Sep-20 05:24N 34°31' E 135°24'0 0.0
2017-Sep-20 05:00N 34°31' E 135°24'0 0.0
2017-Sep-20 02:36N 34°31' E 135°24'0 0.0
2017-Sep-20 02:24N 34°31' E 135°24'0 0.0
2017-Sep-20 02:00N 34°31' E 135°24'0 0.0
2017-Sep-20 01:30N 34°31' E 135°24'0 0.0
2017-Sep-19 23:30N 34°31' E 135°24'0 0.0
2017-Sep-19 22:54N 34°31' E 135°24'0 0.0
2017-Sep-19 22:30N 34°31' E 135°24'0 0.0
2017-Sep-19 22:00N 34°31' E 135°24'0 0.0
2017-Sep-19 21:24N 34°31' E 135°24'0 0.0
2017-Sep-19 21:01N 34°31' E 135°24'3 5.3
2017-Sep-19 20:30N 34°33' E 135°21'917.8
2017-Sep-19 20:00N 34°34' E 135°11'918.5
2017-Sep-19 19:30N 34°37' E 135°00'918.4
2017-Sep-19 19:00N 34°33' E 134°50'8 0.2
2017-Sep-18 10:33N 34°31' E 134°41'223.3
2017-Sep-18 10:28N 34°32' E 134°43'1224.8
2017-Sep-18 10:00N 34°36' E 134°56'1122.4
2017-Sep-18 09:30N 34°36' E 135°10'1020.4
2017-Sep-18 09:00N 34°36' E 135°22'5 6.6
2017-Sep-18 08:14N 34°31' E 135°24'0 0.0
2017-Sep-18 07:56N 34°31' E 135°24'0 0.0
2017-Sep-18 07:26N 34°31' E 135°24'0 0.0
2017-Sep-18 06:56N 34°31' E 135°24'0 0.0
2017-Sep-18 06:20N 34°31' E 135°24'0 0.0
2017-Sep-18 01:20N 34°31' E 135°24'0 0.0
2017-Sep-18 00:56N 34°31' E 135°24'0 0.0
2017-Sep-18 00:26N 34°31' E 135°24'0 0.0
2017-Sep-17 23:56N 34°31' E 135°24'0 0.0
2017-Sep-17 23:30N 34°31' E 135°24'3 6.5
2017-Sep-17 23:00N 34°33' E 135°21'1020.2
2017-Sep-17 22:30N 34°34' E 135°08'918.0
2017-Sep-17 22:00N 34°37' E 134°58'11 0.3
2017-Sep-16 04:55N 34°33' E 134°46'819.7
2017-Sep-16 04:30N 34°36' E 134°55'817.0
2017-Sep-16 04:00N 34°36' E 135°05'918.5
2017-Sep-16 03:30N 34°34' E 135°16'714.6
2017-Sep-16 03:00N 34°31' E 135°24'0 0.0
2017-Sep-16 02:25N 34°31' E 135°24'0 0.0
2017-Sep-16 01:55N 34°31' E 135°24'0 0.0
2017-Sep-16 01:25N 34°31' E 135°24'0 0.0
2017-Sep-16 00:55N 34°31' E 135°24'0 0.0
2017-Sep-16 00:25N 34°31' E 135°24'0 0.0
2017-Sep-15 23:55N 34°31' E 135°24'0 0.0
2017-Sep-15 22:49N 34°31' E 135°24'0 0.0
2017-Sep-15 22:19N 34°31' E 135°24'0 0.0
2017-Sep-15 21:55N 34°31' E 135°24'0 0.0
2017-Sep-15 21:25N 34°31' E 135°24'0 0.0
2017-Sep-15 20:53N 34°31' E 135°24'3 6.9
2017-Sep-15 20:30N 34°33' E 135°22'1019.3
2017-Sep-15 20:00N 34°34' E 135°10'1019.6
2017-Sep-15 19:30N 34°37' E 134°58'13 0.4
2017-Sep-14 10:19N 34°32' E 134°44'722.3
2017-Sep-14 09:59N 34°35' E 134°52'1019.9
2017-Sep-14 09:30N 34°36' E 135°04'1121.5
2017-Sep-14 09:00N 34°33' E 135°17'612.5
2017-Sep-14 08:30N 34°31' E 135°24'0 0.0
2017-Sep-14 08:01N 34°31' E 135°24'0 0.0
2017-Sep-14 07:31N 34°31' E 135°24'0 0.0
2017-Sep-14 06:58N 34°31' E 135°24'0 0.0
2017-Sep-14 06:30N 34°31' E 135°24'0 0.0
2017-Sep-14 05:40N 34°31' E 135°24'0 0.0
2017-Sep-14 05:30N 34°31' E 135°24'0 0.0
2017-Sep-14 05:01N 34°31' E 135°24'0 0.0
2017-Sep-14 04:30N 34°31' E 135°24'0 0.0
2017-Sep-14 04:00N 34°31' E 135°24'0 0.0
2017-Sep-14 03:31N 34°31' E 135°24'0 0.0
2017-Sep-14 03:00N 34°31' E 135°24'0 0.0
2017-Sep-14 02:30N 34°31' E 135°24'0 0.0
2017-Sep-14 02:00N 34°31' E 135°24'0 0.0
2017-Sep-14 01:29N 34°31' E 135°24'0 0.0
2017-Sep-14 01:00N 34°31' E 135°24'0 0.0
2017-Sep-14 00:29N 34°31' E 135°24'0 0.0
2017-Sep-13 23:54N 34°31' E 135°24'0 0.0
2017-Sep-13 23:30N 34°31' E 135°24'0 0.0
2017-Sep-13 23:00N 34°31' E 135°24'0 0.0
2017-Sep-13 22:29N 34°31' E 135°24'0 0.0
2017-Sep-13 21:59N 34°31' E 135°24'0 0.0
2017-Sep-13 21:30N 34°31' E 135°24'0 0.0
2017-Sep-13 21:01N 34°31' E 135°24'2 4.9
2017-Sep-13 20:30N 34°33' E 135°22'1019.2
2017-Sep-13 20:01N 34°34' E 135°10'1020.7
2017-Sep-13 19:30N 34°37' E 134°58'8 0.2
2017-Sep-12 10:11N 34°34' E 134°49'420.9
2017-Sep-12 10:00N 34°36' E 134°53'918.4
2017-Sep-12 09:30N 34°36' E 135°04'1020.5
2017-Sep-12 09:00N 34°36' E 135°17'815.6
2017-Sep-12 08:30N 34°31' E 135°24'0 0.1
2017-Sep-12 07:58N 34°31' E 135°24'  

Dump ship's entire track history